Time;durP1;ratioP1;P1;durP2;ratioP2;P2;SDS_P1;SDS_P2;PMS_P1;PMS_P2;Temp;Humidity;BMP_temperature;BMP_pressure;BME280_temperature;BME280_humidity;BME280_pressure;Samples;Min_cycle;Max_cycle;Signal;HPM_P1;HPM_P2
2022/09/16 00:01:39;;;;;;;9.10;7.07;;;;;;;;;;5088330;28;20519;-71
2022/09/16 00:04:06;;;;;;;8.43;4.32;;;;;;;;;;5073000;28;20296;-71
2022/09/16 00:06:32;;;;;;;5.25;3.88;;;;;;;;;;5093041;28;20048;-71
2022/09/16 00:09:02;;;;;;;4.13;2.85;;;;;;;;;;5093023;28;20459;-71
2022/09/16 00:11:33;;;;;;;3.22;2.55;;;;;;;;;;5093400;28;20043;-72
2022/09/16 00:13:59;;;;;;;3.08;1.90;;;;;;;;;;5093041;28;20272;-71
2022/09/16 00:16:27;;;;;;;6.03;1.77;;;;;;;;;;5093004;28;20039;-71
2022/09/16 00:18:58;;;;;;;3.72;1.50;;;;;;;;;;5092877;28;20457;-71
2022/09/16 00:21:25;;;;;;;2.40;0.95;;;;;;;;;;5092792;28;20567;-71
2022/09/16 00:23:52;;;;;;;2.73;1.10;;;;;;;;;;5093122;28;20050;-71
2022/09/16 00:26:18;;;;;;;1.52;1.00;;;;;;;;;;5092942;28;20283;-71
2022/09/16 00:28:48;;;;;;;2.95;0.90;;;;;;;;;;5091613;28;20059;-71
2022/09/16 00:31:15;;;;;;;2.08;0.90;;;;;;;;;;5092682;28;20059;-71
2022/09/16 00:33:42;;;;;;;1.98;1.23;;;;;;;;;;5092876;28;20136;-71
2022/09/16 00:36:13;;;;;;;3.30;0.90;;;;;;;;;;5093049;28;20125;-71
2022/09/16 00:38:40;;;;;;;2.25;1.00;;;;;;;;;;5092672;28;20055;-71
2022/09/16 00:41:07;;;;;;;1.85;1.15;;;;;;;;;;5092463;28;20051;-71
2022/09/16 00:44:05;;;;;;;2.45;0.90;;;;;;;;;;5092388;28;20593;-71
2022/09/16 00:46:34;;;;;;;1.63;0.90;;;;;;;;;;5080029;28;20058;-71
2022/09/16 00:49:04;;;;;;;1.65;1.30;;;;;;;;;;5092689;28;20036;-71
2022/09/16 00:51:31;;;;;;;1.65;0.80;;;;;;;;;;5092901;28;20050;-71
2022/09/16 00:54:02;;;;;;;1.20;1.00;;;;;;;;;;5092139;28;20048;-71
2022/09/16 00:56:30;;;;;;;2.35;0.90;;;;;;;;;;5092559;28;20051;-71
2022/09/16 00:59:08;;;;;;;2.30;0.93;;;;;;;;;;5092289;28;20051;-71
2022/09/16 01:01:34;;;;;;;3.92;1.00;;;;;;;;;;5092130;28;20044;-71
2022/09/16 01:04:03;;;;;;;2.95;1.00;;;;;;;;;;5091614;28;20044;-71
2022/09/16 01:06:29;;;;;;;3.40;1.05;;;;;;;;;;5092175;28;20040;-71
2022/09/16 01:08:56;;;;;;;3.28;1.23;;;;;;;;;;5091870;28;20054;-71
2022/09/16 01:11:23;;;;;;;2.95;1.08;;;;;;;;;;5091945;28;20497;-71
2022/09/16 01:13:50;;;;;;;3.25;1.13;;;;;;;;;;5092194;28;20055;-71
2022/09/16 01:16:19;;;;;;;1.40;0.70;;;;;;;;;;5092158;28;20048;-71
2022/09/16 01:19:12;;;;;;;5.43;1.40;;;;;;;;;;5091713;28;20051;-70
2022/09/16 01:21:50;;;;;;;1.60;0.90;;;;;;;;;;5091766;28;20130;-70
2022/09/16 01:24:48;;;;;;;3.38;0.77;;;;;;;;;;5092108;28;20054;-70
2022/09/16 01:27:18;;;;;;;3.40;1.10;;;;;;;;;;5079508;28;20486;-71
2022/09/16 01:29:44;;;;;;;2.88;0.80;;;;;;;;;;5091924;28;20060;-72
2022/09/16 01:32:18;;;;;;;3.78;0.90;;;;;;;;;;5091775;28;20044;-71
2022/09/16 01:34:47;;;;;;;2.80;0.93;;;;;;;;;;5091871;28;20066;-71
2022/09/16 01:37:19;;;;;;;1.77;0.82;;;;;;;;;;5091810;28;20051;-71
2022/09/16 01:39:57;;;;;;;2.22;0.85;;;;;;;;;;5091950;28;20062;-71
2022/09/16 01:42:24;;;;;;;1.63;0.90;;;;;;;;;;5090653;28;20258;-71
2022/09/16 01:44:53;;;;;;;2.60;1.10;;;;;;;;;;5091552;28;20384;-71
2022/09/16 01:47:35;;;;;;;2.83;0.70;;;;;;;;;;5091710;28;20040;-71
2022/09/16 01:50:08;;;;;;;1.17;0.93;;;;;;;;;;5091463;28;20518;-71
2022/09/16 01:52:56;;;;;;;2.00;0.95;;;;;;;;;;5091555;28;20048;-71
2022/09/16 01:55:28;;;;;;;3.58;1.05;;;;;;;;;;5091441;28;20512;-71
2022/09/16 01:58:05;;;;;;;1.85;0.80;;;;;;;;;;5091650;28;20051;-71
2022/09/16 02:00:31;;;;;;;1.75;0.82;;;;;;;;;;5091731;28;20062;-71
2022/09/16 02:03:04;;;;;;;2.60;0.77;;;;;;;;;;5091592;28;20047;-73
2022/09/16 02:05:37;;;;;;;0.88;0.68;;;;;;;;;;5091350;28;20500;-73
2022/09/16 02:08:06;;;;;;;3.08;0.95;;;;;;;;;;5091734;28;20040;-73
2022/09/16 02:10:40;;;;;;;2.58;0.77;;;;;;;;;;5091375;28;20506;-73
2022/09/16 02:13:20;;;;;;;4.45;0.90;;;;;;;;;;5091388;28;20063;-73
2022/09/16 02:15:48;;;;;;;3.10;0.93;;;;;;;;;;5095591;28;20141;-73
2022/09/16 02:18:18;;;;;;;3.40;1.75;;;;;;;;;;5095233;28;20098;-73
2022/09/16 02:20:45;;;;;;;6.32;1.48;;;;;;;;;;5094244;28;20062;-73
2022/09/16 02:23:14;;;;;;;3.13;1.75;;;;;;;;;;5095294;28;20051;-73
2022/09/16 02:25:42;;;;;;;3.05;1.38;;;;;;;;;;5093835;28;20058;-73
2022/09/16 02:28:11;;;;;;;1.00;1.00;;;;;;;;;;5094865;28;20507;-73
2022/09/16 02:30:42;;;;;;;3.60;1.00;;;;;;;;;;5094851;28;20044;-72
2022/09/16 02:33:11;;;;;;;1.25;1.00;;;;;;;;;;5095120;28;20048;-72
2022/09/16 02:35:38;;;;;;;0.70;0.70;;;;;;;;;;5087250;28;20045;-71
2022/09/16 02:38:13;;;;;;;1.08;0.60;;;;;;;;;;5088775;28;20109;-71
2022/09/16 02:40:43;;;;;;;0.95;0.80;;;;;;;;;;5094901;28;20056;-71
2022/09/16 02:43:09;;;;;;;1.42;0.73;;;;;;;;;;5095018;28;20054;-71
2022/09/16 02:45:39;;;;;;;3.42;0.80;;;;;;;;;;5094921;28;20085;-71
2022/09/16 02:48:12;;;;;;;3.38;0.73;;;;;;;;;;5094650;28;20507;-72
2022/09/16 02:50:46;;;;;;;1.70;0.82;;;;;;;;;;5088438;28;20169;-72
2022/09/16 02:53:12;;;;;;;1.92;0.90;;;;;;;;;;5094433;28;20403;-72
2022/09/16 02:55:48;;;;;;;2.35;0.80;;;;;;;;;;5094482;28;20074;-72
2022/09/16 02:58:14;;;;;;;1.00;0.90;;;;;;;;;;5094651;28;20063;-71
2022/09/16 03:00:43;;;;;;;1.55;0.80;;;;;;;;;;5094612;28;20052;-71
2022/09/16 03:03:09;;;;;;;1.38;0.68;;;;;;;;;;5094381;28;20502;-71
2022/09/16 03:05:56;;;;;;;2.25;0.63;;;;;;;;;;5094583;28;20048;-71
2022/09/16 03:08:22;;;;;;;3.17;0.90;;;;;;;;;;5095155;28;20051;-71
2022/09/16 03:10:50;;;;;;;1.30;0.63;;;;;;;;;;5094274;28;20067;-71
2022/09/16 03:13:37;;;;;;;5.25;0.95;;;;;;;;;;5094327;28;20051;-72
2022/09/16 03:16:04;;;;;;;1.00;0.77;;;;;;;;;;5093986;28;20048;-71
2022/09/16 03:18:45;;;;;;;2.23;1.27;;;;;;;;;;5093883;28;20062;-71
2022/09/16 03:21:16;;;;;;;2.83;0.75;;;;;;;;;;5094257;28;20052;-71
2022/09/16 03:23:55;;;;;;;3.35;1.17;;;;;;;;;;5093950;28;20499;-71
2022/09/16 03:26:21;;;;;;;1.58;1.00;;;;;;;;;;5092841;28;20056;-71
2022/09/16 03:28:47;;;;;;;1.42;0.68;;;;;;;;;;5094105;28;20048;-71
2022/09/16 03:31:20;;;;;;;1.35;0.77;;;;;;;;;;5093792;28;20044;-71
2022/09/16 03:33:56;;;;;;;1.67;0.80;;;;;;;;;;5092793;28;20052;-71
2022/09/16 03:36:25;;;;;;;1.48;1.00;;;;;;;;;;5093853;28;20496;-71
2022/09/16 03:38:52;;;;;;;2.10;1.02;;;;;;;;;;5093820;28;20056;-71
2022/09/16 03:41:19;;;;;;;2.17;0.90;;;;;;;;;;5093733;28;20052;-71
2022/09/16 03:43:56;;;;;;;1.25;0.82;;;;;;;;;;5093505;28;20052;-71
2022/09/16 03:46:28;;;;;;;0.70;0.60;;;;;;;;;;5093943;28;20052;-71
2022/09/16 03:48:55;;;;;;;2.58;0.80;;;;;;;;;;5093320;28;20468;-71
2022/09/16 03:51:22;;;;;;;0.85;0.65;;;;;;;;;;5093769;28;20050;-71
2022/09/16 03:53:50;;;;;;;1.90;0.70;;;;;;;;;;5093352;28;20782;-72
2022/09/16 03:56:16;;;;;;;0.85;0.82;;;;;;;;;;5093378;28;20067;-72
2022/09/16 03:58:43;;;;;;;4.50;1.10;;;;;;;;;;5093323;28;20048;-71
2022/09/16 04:01:09;;;;;;;1.27;0.88;;;;;;;;;;5093484;28;20044;-71
2022/09/16 04:03:36;;;;;;;2.28;1.10;;;;;;;;;;5091943;28;20056;-71
2022/09/16 04:06:02;;;;;;;1.55;0.90;;;;;;;;;;5093134;28;20555;-71
2022/09/16 04:08:29;;;;;;;3.03;1.10;;;;;;;;;;5092955;28;20058;-71
2022/09/16 04:10:56;;;;;;;3.35;1.17;;;;;;;;;;5093240;28;20071;-71
2022/09/16 04:13:23;;;;;;;6.13;1.00;;;;;;;;;;5093244;28;20040;-71
2022/09/16 04:15:49;;;;;;;3.67;1.00;;;;;;;;;;5093000;28;20044;-71
2022/09/16 04:18:16;;;;;;;3.58;0.95;;;;;;;;;;5092989;28;20109;-73
2022/09/16 04:20:42;;;;;;;2.58;1.05;;;;;;;;;;5091452;28;20056;-74
2022/09/16 04:23:09;;;;;;;2.70;0.80;;;;;;;;;;5092789;28;20040;-74
2022/09/16 04:25:35;;;;;;;1.52;0.93;;;;;;;;;;5092970;28;20044;-74
2022/09/16 04:28:02;;;;;;;1.92;0.70;;;;;;;;;;5092922;28;20040;-73
2022/09/16 04:30:28;;;;;;;2.67;1.00;;;;;;;;;;5092762;28;20044;-72
2022/09/16 04:32:55;;;;;;;2.13;0.90;;;;;;;;;;5092561;28;20052;-72
2022/09/16 04:35:22;;;;;;;1.30;0.77;;;;;;;;;;5092613;28;20582;-72
2022/09/16 04:37:48;;;;;;;3.05;1.10;;;;;;;;;;5092511;28;20048;-71
2022/09/16 04:40:15;;;;;;;2.22;1.10;;;;;;;;;;5091295;28;20066;-72
2022/09/16 04:42:49;;;;;;;1.40;1.05;;;;;;;;;;5092465;28;20084;-72
2022/09/16 04:45:15;;;;;;;2.33;1.00;;;;;;;;;;5091282;28;20079;-72
2022/09/16 04:47:42;;;;;;;3.92;1.08;;;;;;;;;;5092405;28;20044;-72
2022/09/16 04:50:08;;;;;;;2.45;1.17;;;;;;;;;;5092267;28;20050;-71
2022/09/16 04:52:35;;;;;;;3.60;0.77;;;;;;;;;;5092581;28;20050;-71
2022/09/16 04:55:01;;;;;;;2.85;1.33;;;;;;;;;;5091113;28;20044;-71
2022/09/16 04:57:31;;;;;;;3.35;1.08;;;;;;;;;;5092470;28;20062;-71
2022/09/16 04:59:57;;;;;;;5.22;0.90;;;;;;;;;;5092161;28;20135;-71
2022/09/16 05:02:24;;;;;;;1.77;0.90;;;;;;;;;;5092204;28;20044;-71
2022/09/16 05:04:50;;;;;;;2.45;0.98;;;;;;;;;;5092097;28;20117;-71
2022/09/16 05:07:16;;;;;;;2.25;1.20;;;;;;;;;;5092106;28;20048;-71
2022/09/16 05:09:43;;;;;;;1.05;0.80;;;;;;;;;;5092078;28;20048;-71
2022/09/16 05:12:09;;;;;;;2.13;0.90;;;;;;;;;;5091942;28;20487;-71
2022/09/16 05:14:36;;;;;;;3.28;1.10;;;;;;;;;;5091878;28;20051;-71
2022/09/16 05:17:02;;;;;;;2.30;1.45;;;;;;;;;;5092228;28;20044;-71
2022/09/16 05:19:29;;;;;;;1.52;1.05;;;;;;;;;;5091586;28;20044;-71
2022/09/16 05:21:55;;;;;;;2.17;1.10;;;;;;;;;;5091824;28;20051;-71
2022/09/16 05:24:22;;;;;;;2.60;0.90;;;;;;;;;;5091746;28;20048;-71
2022/09/16 05:26:48;;;;;;;4.10;1.00;;;;;;;;;;5091925;28;20048;-71
2022/09/16 05:29:15;;;;;;;6.15;1.33;;;;;;;;;;5091774;28;20058;-71
2022/09/16 05:31:42;;;;;;;3.35;1.13;;;;;;;;;;5091976;28;20070;-72
2022/09/16 05:34:17;;;;;;;4.60;1.45;;;;;;;;;;5091706;28;20546;-72
2022/09/16 05:36:46;;;;;;;2.28;0.95;;;;;;;;;;5091564;28;20522;-72
2022/09/16 05:39:14;;;;;;;2.75;1.00;;;;;;;;;;5091811;28;20388;-72
2022/09/16 05:41:51;;;;;;;2.40;1.30;;;;;;;;;;5090674;28;20060;-72
2022/09/16 05:44:18;;;;;;;1.13;0.93;;;;;;;;;;5092272;28;20054;-72
2022/09/16 05:46:44;;;;;;;3.65;1.70;;;;;;;;;;5091965;28;20059;-73
2022/09/16 05:49:10;;;;;;;4.65;1.75;;;;;;;;;;5093383;28;20040;-73
2022/09/16 05:51:37;;;;;;;2.92;1.52;;;;;;;;;;5095728;28;20496;-74
2022/09/16 05:54:04;;;;;;;3.70;1.80;;;;;;;;;;5095854;28;20392;-74
2022/09/16 05:56:30;;;;;;;3.65;1.52;;;;;;;;;;5095729;28;20283;-73
2022/09/16 05:58:58;;;;;;;2.38;1.70;;;;;;;;;;5095558;28;20058;-74
2022/09/16 06:01:25;;;;;;;;;;;;;;;;;;5096304;28;20040;-74
2022/09/16 06:03:53;;;;;;;3.10;1.50;;;;;;;;;;5095793;28;19950;-73
2022/09/16 06:06:20;;;;;;;;;;;;;;;;;;5094679;28;20048;-73
2022/09/16 06:08:47;;;;;;;3.35;1.23;;;;;;;;;;5095315;28;20397;-74
2022/09/16 06:11:14;;;;;;;1.97;1.30;;;;;;;;;;5095395;28;20050;-77
2022/09/16 06:13:40;;;;;;;2.00;1.05;;;;;;;;;;5095608;28;20051;-74
2022/09/16 06:16:08;;;;;;;2.10;1.52;;;;;;;;;;5095237;28;20051;-72
2022/09/16 06:18:35;;;;;;;2.25;1.33;;;;;;;;;;5095359;28;20059;-71
2022/09/16 06:21:04;;;;;;;4.85;1.40;;;;;;;;;;5095555;28;20058;-71
2022/09/16 06:23:31;;;;;;;3.33;1.40;;;;;;;;;;5095144;28;20059;-71
2022/09/16 06:25:58;;;;;;;2.00;1.23;;;;;;;;;;5094610;28;20044;-72
2022/09/16 06:28:24;;;;;;;6.03;1.60;;;;;;;;;;5093613;28;20044;-71
2022/09/16 06:31:00;;;;;;;4.00;1.10;;;;;;;;;;5094789;28;20050;-75
2022/09/16 06:33:27;;;;;;;4.03;1.48;;;;;;;;;;5095287;28;20063;-78
2022/09/16 06:35:53;;;;;;;3.55;1.40;;;;;;;;;;5093625;28;20514;-75
2022/09/16 06:38:20;;;;;;;4.53;1.70;;;;;;;;;;5094560;28;20046;-77
2022/09/16 06:40:46;;;;;;;3.80;1.20;;;;;;;;;;5094323;28;20066;-73
2022/09/16 06:43:13;;;;;;;3.47;1.27;;;;;;;;;;5093822;28;20054;-72
2022/09/16 06:45:39;;;;;;;2.47;1.30;;;;;;;;;;5094131;28;20056;-73
2022/09/16 06:48:06;;;;;;;4.15;1.48;;;;;;;;;;5094033;28;20044;-75
2022/09/16 06:50:32;;;;;;;2.53;1.08;;;;;;;;;;5093773;28;20040;-74
2022/09/16 06:52:59;;;;;;;2.57;1.40;;;;;;;;;;5093812;28;20048;-73
2022/09/16 06:55:25;;;;;;;2.60;1.30;;;;;;;;;;5094408;28;20044;-73
2022/09/16 06:57:51;;;;;;;4.80;1.40;;;;;;;;;;5093706;28;20040;-75
2022/09/16 07:00:18;;;;;;;2.22;1.10;;;;;;;;;;5093552;28;20052;-75
2022/09/16 07:02:44;;;;;;;4.15;1.33;;;;;;;;;;5094340;28;20052;-73
2022/09/16 07:05:11;;;;;;;2.40;1.20;;;;;;;;;;5093974;28;20050;-74
2022/09/16 07:07:38;;;;;;;6.47;1.10;;;;;;;;;;5093492;28;20059;-72
2022/09/16 07:10:06;;;;;;;3.63;1.10;;;;;;;;;;5093929;28;20050;-73
2022/09/16 07:12:32;;;;;;;3.08;1.05;;;;;;;;;;5092928;28;20040;-73
2022/09/16 07:14:58;;;;;;;5.00;1.40;;;;;;;;;;5092776;28;20055;-72
2022/09/16 07:17:26;;;;;;;2.67;0.80;;;;;;;;;;5093374;28;20055;-73
2022/09/16 07:19:52;;;;;;;3.05;0.90;;;;;;;;;;5093675;28;20569;-72
2022/09/16 07:22:19;;;;;;;1.00;0.90;;;;;;;;;;5094241;28;20073;-72
2022/09/16 07:24:45;;;;;;;1.67;0.77;;;;;;;;;;5094256;28;20052;-72
2022/09/16 07:27:11;;;;;;;2.33;0.65;;;;;;;;;;5094237;28;20044;-72
2022/09/16 07:29:38;;;;;;;1.50;0.65;;;;;;;;;;5093828;28;20480;-72
2022/09/16 07:32:04;;;;;;;4.32;1.10;;;;;;;;;;5093978;28;20041;-72
2022/09/16 07:34:30;;;;;;;3.78;0.98;;;;;;;;;;5093935;28;20036;-72
2022/09/16 07:36:58;;;;;;;1.70;0.85;;;;;;;;;;5093281;28;20055;-72
2022/09/16 07:39:24;;;;;;;;;;;;;;;;;;5093734;28;20483;-72
2022/09/16 07:41:51;;;;;;;1.17;0.50;;;;;;;;;;5093906;28;20320;-72
2022/09/16 07:44:18;;;;;;;3.83;0.80;;;;;;;;;;5093744;28;20129;-73
2022/09/16 07:46:45;;;;;;;2.60;0.80;;;;;;;;;;5093579;28;20131;-72
2022/09/16 07:49:12;;;;;;;1.85;0.80;;;;;;;;;;5093441;28;20573;-72
2022/09/16 07:51:39;;;;;;;;;;;;;;;;;;5093717;28;20047;-72
2022/09/16 07:54:06;;;;;;;1.40;0.40;;;;;;;;;;5093401;28;20651;-73
2022/09/16 07:56:34;;;;;;;3.13;0.60;;;;;;;;;;5085257;28;20483;-73
2022/09/16 07:59:01;;;;;;;0.82;0.30;;;;;;;;;;5086451;28;20040;-73
2022/09/16 08:01:29;;;;;;;2.92;0.70;;;;;;;;;;5092648;28;20044;-73
2022/09/16 08:03:57;;;;;;;1.00;0.35;;;;;;;;;;5089239;28;20056;-73
2022/09/16 08:06:24;;;;;;;2.03;0.60;;;;;;;;;;5092256;28;20048;-73
2022/09/16 08:08:52;;;;;;;1.27;0.30;;;;;;;;;;5092016;28;20565;-73
2022/09/16 08:11:18;;;;;;;;;;;;;;;;;;5092222;28;20047;-73
2022/09/16 08:13:45;;;;;;;1.27;0.33;;;;;;;;;;5092355;28;19948;-73
2022/09/16 08:16:12;;;;;;;5.07;0.50;;;;;;;;;;5076197;28;20285;-73
2022/09/16 08:18:39;;;;;;;1.70;0.35;;;;;;;;;;5090698;28;20056;-74
2022/09/16 08:21:26;;;;;;;0.75;0.30;;;;;;;;;;5092310;28;20052;-74
2022/09/16 08:23:53;;;;;;;2.05;0.38;;;;;;;;;;5091934;28;20051;-74
2022/09/16 08:26:21;;;;;;;0.90;0.40;;;;;;;;;;5091470;28;20097;-74
2022/09/16 08:28:48;;;;;;;2.33;0.40;;;;;;;;;;5092208;28;20056;-74
2022/09/16 08:31:34;;;;;;;1.92;0.40;;;;;;;;;;5092084;28;20051;-73
2022/09/16 08:34:00;;;;;;;1.63;0.38;;;;;;;;;;5092194;28;20047;-73
2022/09/16 08:36:27;;;;;;;2.53;0.40;;;;;;;;;;5092127;28;20486;-73
2022/09/16 08:38:54;;;;;;;1.50;0.20;;;;;;;;;;5092361;28;20058;-74
2022/09/16 08:41:39;;;;;;;1.13;0.30;;;;;;;;;;5091974;28;20048;-73
2022/09/16 08:44:08;;;;;;;1.77;0.35;;;;;;;;;;5092193;28;20051;-73
2022/09/16 08:47:05;;;;;;;1.15;0.40;;;;;;;;;;5092218;28;20048;-73
2022/09/16 08:49:37;;;;;;;1.17;0.50;;;;;;;;;;5087127;28;20164;-71
2022/09/16 08:52:14;;;;;;;1.27;0.50;;;;;;;;;;5084620;28;20044;-72
2022/09/16 08:54:51;;;;;;;0.60;0.30;;;;;;;;;;5090556;28;20047;-73
2022/09/16 08:57:21;;;;;;;0.32;0.30;;;;;;;;;;5065820;28;20040;-73
2022/09/16 08:59:52;;;;;;;2.45;0.30;;;;;;;;;;5091236;28;20479;-73
2022/09/16 09:02:21;;;;;;;2.33;0.43;;;;;;;;;;5090807;28;20052;-74
2022/09/16 09:04:48;;;;;;;1.55;0.57;;;;;;;;;;5091330;28;20537;-74
2022/09/16 09:07:15;;;;;;;1.48;0.28;;;;;;;;;;5090840;28;20054;-74
2022/09/16 09:09:42;;;;;;;1.52;0.20;;;;;;;;;;5090326;28;20052;-73
2022/09/16 09:12:13;;;;;;;1.65;0.40;;;;;;;;;;5091050;28;20048;-73
2022/09/16 09:14:44;;;;;;;3.88;0.52;;;;;;;;;;5091701;28;20392;-73
2022/09/16 09:17:23;;;;;;;1.30;0.28;;;;;;;;;;5089260;28;20134;-73
2022/09/16 09:20:04;;;;;;;1.63;0.40;;;;;;;;;;5090910;28;20055;-72
2022/09/16 09:22:30;;;;;;;1.02;0.30;;;;;;;;;;5091350;28;20056;-73
2022/09/16 09:25:15;;;;;;;1.40;0.30;;;;;;;;;;5090929;28;20059;-73
2022/09/16 09:27:49;;;;;;;0.88;0.20;;;;;;;;;;5091231;28;20052;-73
2022/09/16 09:30:22;;;;;;;1.35;0.30;;;;;;;;;;5091183;28;20048;-74
2022/09/16 09:32:58;;;;;;;0.40;0.32;;;;;;;;;;5090561;28;20051;-75
2022/09/16 09:35:33;;;;;;;1.85;0.40;;;;;;;;;;5090534;28;20040;-75
2022/09/16 09:38:15;;;;;;;0.75;0.20;;;;;;;;;;5090730;28;20051;-74
2022/09/16 09:40:51;;;;;;;1.08;0.20;;;;;;;;;;5090971;28;20415;-73
2022/09/16 09:43:22;;;;;;;1.33;0.30;;;;;;;;;;5091419;28;20064;-71
2022/09/16 09:45:57;;;;;;;1.23;0.30;;;;;;;;;;5091334;28;20415;-70
2022/09/16 09:48:26;;;;;;;1.95;0.30;;;;;;;;;;5091057;28;20052;-70
2022/09/16 09:50:53;;;;;;;1.48;0.30;;;;;;;;;;5088113;28;20045;-70
2022/09/16 09:53:24;;;;;;;1.42;0.28;;;;;;;;;;5071181;28;20481;-72
2022/09/16 09:55:59;;;;;;;1.70;0.40;;;;;;;;;;5088374;28;20076;-72
2022/09/16 09:58:37;;;;;;;3.20;0.40;;;;;;;;;;5091002;28;20094;-72
2022/09/16 10:01:03;;;;;;;2.65;0.70;;;;;;;;;;5089909;28;20040;-72
2022/09/16 10:03:30;;;;;;;;;;;;;;;;;;5091670;28;20455;-72
2022/09/16 10:05:56;;;;;;;1.33;0.30;;;;;;;;;;5090775;28;19924;-72
2022/09/16 10:08:28;;;;;;;1.48;0.20;;;;;;;;;;5090934;28;20044;-72
2022/09/16 10:10:59;;;;;;;1.70;0.80;;;;;;;;;;5081842;28;20047;-72
2022/09/16 10:13:27;;;;;;;1.55;0.20;;;;;;;;;;5090525;28;20059;-72
2022/09/16 10:15:54;;;;;;;1.45;0.30;;;;;;;;;;5090631;28;20040;-73
2022/09/16 10:18:24;;;;;;;1.17;0.20;;;;;;;;;;5088240;28;20072;-72
2022/09/16 10:20:59;;;;;;;1.77;0.30;;;;;;;;;;5090400;28;20048;-72
2022/09/16 10:23:26;;;;;;;0.43;0.15;;;;;;;;;;5090416;28;20058;-72
2022/09/16 10:26:05;;;;;;;0.47;0.20;;;;;;;;;;5090890;28;20050;-73
2022/09/16 10:28:32;;;;;;;1.10;0.20;;;;;;;;;;5091051;28;20077;-72
2022/09/16 10:30:59;;;;;;;1.80;0.30;;;;;;;;;;5090666;28;20048;-73
2022/09/16 10:33:25;;;;;;;1.05;0.30;;;;;;;;;;5090971;28;20131;-73
2022/09/16 10:35:56;;;;;;;0.98;0.13;;;;;;;;;;5093223;28;20044;-72
2022/09/16 10:38:24;;;;;;;0.95;0.10;;;;;;;;;;5094762;28;20058;-73
2022/09/16 10:40:56;;;;;;;2.22;0.20;;;;;;;;;;5093992;28;20056;-73
2022/09/16 10:43:23;;;;;;;1.65;0.10;;;;;;;;;;5094111;28;20048;-73
2022/09/16 10:45:51;;;;;;;1.67;0.13;;;;;;;;;;5093856;28;20048;-74
2022/09/16 10:48:19;;;;;;;0.80;0.20;;;;;;;;;;5092531;28;20059;-77
2022/09/16 10:50:53;;;;;;;0.82;0.13;;;;;;;;;;5079175;28;20051;-73
2022/09/16 10:53:20;;;;;;;0.85;0.20;;;;;;;;;;5091000;28;20384;-73
2022/09/16 10:55:56;;;;;;;0.93;0.10;;;;;;;;;;5087305;28;20045;-73
2022/09/16 10:58:22;;;;;;;1.50;0.40;;;;;;;;;;5084478;28;20044;-73
2022/09/16 11:00:55;;;;;;;0.47;0.10;;;;;;;;;;5094061;28;20044;-73
2022/09/16 11:03:41;;;;;;;0.55;0.20;;;;;;;;;;5093770;28;20127;-70
2022/09/16 11:06:29;;;;;;;0.20;0.20;;;;;;;;;;5093899;28;20407;-70
2022/09/16 11:08:56;;;;;;;1.63;0.28;;;;;;;;;;5083962;28;20048;-70
2022/09/16 11:11:41;;;;;;;0.70;0.20;;;;;;;;;;5093457;28;20437;-71
2022/09/16 11:14:23;;;;;;;1.38;0.30;;;;;;;;;;5093906;28;20048;-75
2022/09/16 11:17:10;;;;;;;2.45;0.20;;;;;;;;;;5094120;28;20056;-76
2022/09/16 11:19:55;;;;;;;0.80;0.30;;;;;;;;;;5093648;28;20058;-73
2022/09/16 11:22:39;;;;;;;1.40;0.40;;;;;;;;;;5094050;28;20052;-73
2022/09/16 11:25:24;;;;;;;0.60;0.15;;;;;;;;;;5084116;28;20049;-73
2022/09/16 11:28:00;;;;;;;0.60;0.30;;;;;;;;;;5088567;28;20040;-74
2022/09/16 11:30:28;;;;;;;2.35;0.13;;;;;;;;;;5087814;28;20053;-73
2022/09/16 11:33:00;;;;;;;0.50;0.25;;;;;;;;;;5093124;28;20044;-74
2022/09/16 11:35:41;;;;;;;0.57;0.20;;;;;;;;;;5093809;28;20427;-76
2022/09/16 11:38:08;;;;;;;0.95;0.30;;;;;;;;;;5093599;28;20048;-75
2022/09/16 11:40:37;;;;;;;0.38;0.20;;;;;;;;;;5093492;28;20059;-73
2022/09/16 11:43:10;;;;;;;0.52;0.20;;;;;;;;;;5085541;28;20048;-73
2022/09/16 11:45:56;;;;;;;0.70;0.10;;;;;;;;;;5084010;28;20043;-73
2022/09/16 11:48:26;;;;;;;0.40;0.10;;;;;;;;;;5092931;28;20415;-73
2022/09/16 11:50:55;;;;;;;0.10;0.03;;;;;;;;;;5093066;28;20055;-74
2022/09/16 11:53:28;;;;;;;1.25;0.20;;;;;;;;;;5091741;28;20055;-74
2022/09/16 11:56:09;;;;;;;0.60;0.32;;;;;;;;;;5093228;28;20543;-74
2022/09/16 11:58:54;;;;;;;0.77;0.32;;;;;;;;;;5093084;28;20048;-74
2022/09/16 12:01:37;;;;;;;2.72;0.93;;;;;;;;;;5093064;28;20074;-73
2022/09/16 12:04:09;;;;;;;0.10;0.10;;;;;;;;;;5068344;28;20059;-74
2022/09/16 12:06:40;;;;;;;0.85;0.20;;;;;;;;;;5092999;28;20407;-74
2022/09/16 12:09:18;;;;;;;2.05;0.20;;;;;;;;;;5092410;28;20052;-73
2022/09/16 12:11:47;;;;;;;0.47;0.10;;;;;;;;;;5092651;28;20407;-73
2022/09/16 12:14:22;;;;;;;1.55;0.20;;;;;;;;;;5092450;28;20040;-73
2022/09/16 12:16:57;;;;;;;0.60;0.17;;;;;;;;;;5092266;28;20055;-73
2022/09/16 12:19:35;;;;;;;0.38;0.10;;;;;;;;;;5086641;28;20056;-73
2022/09/16 12:22:11;;;;;;;0.30;0.10;;;;;;;;;;5092206;28;20403;-74
2022/09/16 12:24:42;;;;;;;0.20;0.13;;;;;;;;;;5092400;28;20055;-73
2022/09/16 12:27:29;;;;;;;1.85;0.15;;;;;;;;;;5092420;28;20055;-73
2022/09/16 12:29:59;;;;;;;0.25;0.10;;;;;;;;;;5092185;28;20046;-72
2022/09/16 12:32:37;;;;;;;0.30;0.10;;;;;;;;;;5092285;28;20501;-73
2022/09/16 12:35:11;;;;;;;0.93;0.30;;;;;;;;;;5079199;28;20041;-73
2022/09/16 12:37:48;;;;;;;0.17;0.17;;;;;;;;;;5071877;28;20048;-74
2022/09/16 12:40:22;;;;;;;0.73;0.10;;;;;;;;;;5072272;28;20411;-75
2022/09/16 12:43:16;;;;;;;0.10;0.10;;;;;;;;;;5067168;28;20071;-75
2022/09/16 12:45:45;;;;;;;0.43;0.20;;;;;;;;;;5071826;28;20057;-74
2022/09/16 12:48:14;;;;;;;0.60;0.15;;;;;;;;;;5071609;28;20059;-75
2022/09/16 12:50:59;;;;;;;1.38;0.10;;;;;;;;;;5071689;28;20071;-75
2022/09/16 12:53:35;;;;;;;0.80;0.15;;;;;;;;;;5072211;28;20044;-73
2022/09/16 12:56:01;;;;;;;0.52;0.20;;;;;;;;;;5086995;28;20059;-73
2022/09/16 12:58:57;;;;;;;0.35;0.20;;;;;;;;;;5066750;28;20044;-72
2022/09/16 13:01:24;;;;;;;0.55;0.30;;;;;;;;;;5066652;28;20049;-74
2022/09/16 13:04:02;;;;;;;0.70;0.20;;;;;;;;;;5071650;28;20057;-74
2022/09/16 13:06:31;;;;;;;1.13;0.15;;;;;;;;;;5071406;28;20040;-75
2022/09/16 13:09:11;;;;;;;0.82;0.20;;;;;;;;;;5071204;28;20056;-74
2022/09/16 13:11:38;;;;;;;1.17;0.10;;;;;;;;;;5071318;28;20044;-73
2022/09/16 13:14:30;;;;;;;2.33;0.60;;;;;;;;;;5071452;28;20048;-74
2022/09/16 13:16:58;;;;;;;0.70;0.20;;;;;;;;;;5068283;28;20048;-74
2022/09/16 13:19:27;;;;;;;1.33;0.28;;;;;;;;;;5071193;28;20088;-73
2022/09/16 13:21:56;;;;;;;0.80;0.30;;;;;;;;;;5071190;28;20052;-74
2022/09/16 13:24:30;;;;;;;0.45;0.20;;;;;;;;;;5071250;28;20052;-72
2022/09/16 13:26:56;;;;;;;0.88;0.20;;;;;;;;;;5070715;28;20502;-74
2022/09/16 13:29:28;;;;;;;1.10;0.15;;;;;;;;;;5087972;28;20046;-74
2022/09/16 13:31:55;;;;;;;0.20;0.20;;;;;;;;;;5072170;28;20109;-74
2022/09/16 13:34:26;;;;;;;4.68;0.30;;;;;;;;;;5091891;28;20047;-73
2022/09/16 13:36:52;;;;;;;1.60;0.13;;;;;;;;;;5091497;28;20055;-74
2022/09/16 13:39:32;;;;;;;0.70;0.25;;;;;;;;;;5081514;28;20076;-74
2022/09/16 13:42:19;;;;;;;1.17;0.25;;;;;;;;;;5070610;28;20530;-73
2022/09/16 13:44:46;;;;;;;0.55;0.10;;;;;;;;;;5089643;28;20048;-73
2022/09/16 13:47:13;;;;;;;;;;;;;;;;;;5086296;28;20044;-73
2022/09/16 13:49:42;;;;;;;0.43;0.10;;;;;;;;;;5091399;28;19920;-74
2022/09/16 13:52:11;;;;;;;0.45;0.25;;;;;;;;;;5064141;28;20058;-73
2022/09/16 13:54:41;;;;;;;0.10;0.10;;;;;;;;;;5091056;28;20043;-73
2022/09/16 13:57:44;;;;;;;1.23;0.20;;;;;;;;;;5091071;28;20486;-73
2022/09/16 14:00:16;;;;;;;0.32;0.10;;;;;;;;;;5091029;28;20142;-74
2022/09/16 14:02:47;;;;;;;1.05;0.10;;;;;;;;;;5091404;28;20052;-73
2022/09/16 14:05:32;;;;;;;0.47;0.08;;;;;;;;;;5091405;28;20131;-73
2022/09/16 14:08:05;;;;;;;0.75;0.10;;;;;;;;;;5087841;28;20423;-73
2022/09/16 14:10:47;;;;;;;0.38;0.10;;;;;;;;;;5092601;28;20396;-73
2022/09/16 14:13:18;;;;;;;0.63;0.20;;;;;;;;;;5095141;28;20051;-75
2022/09/16 14:15:48;;;;;;;0.45;0.20;;;;;;;;;;5095488;28;20040;-75
2022/09/16 14:18:19;;;;;;;0.40;0.10;;;;;;;;;;5095665;28;20044;-75
2022/09/16 14:20:54;;;;;;;0.52;0.10;;;;;;;;;;5095180;28;20429;-75
2022/09/16 14:23:22;;;;;;;0.68;0.10;;;;;;;;;;5092055;28;20058;-77
2022/09/16 14:25:49;;;;;;;0.22;0.13;;;;;;;;;;5094764;28;20403;-76
2022/09/16 14:28:20;;;;;;;0.95;0.10;;;;;;;;;;5094421;28;20406;-73
2022/09/16 14:30:47;;;;;;;0.45;0.10;;;;;;;;;;5094300;28;20044;-73
2022/09/16 14:33:14;;;;;;;0.93;0.10;;;;;;;;;;5094498;28;20050;-71
2022/09/16 14:35:42;;;;;;;1.20;0.30;;;;;;;;;;5094750;28;20488;-71
2022/09/16 14:38:08;;;;;;;1.00;0.20;;;;;;;;;;5089815;28;20040;-70
2022/09/16 14:40:55;;;;;;;1.55;0.20;;;;;;;;;;5073391;28;20052;-71
2022/09/16 14:43:21;;;;;;;0.65;0.10;;;;;;;;;;5080749;28;20044;-71
2022/09/16 14:45:49;;;;;;;1.17;0.20;;;;;;;;;;5092143;28;20048;-71
2022/09/16 14:48:17;;;;;;;1.08;0.15;;;;;;;;;;5093537;28;20058;-71
2022/09/16 14:50:45;;;;;;;0.65;0.10;;;;;;;;;;5093655;28;20048;-71
2022/09/16 14:53:29;;;;;;;0.20;0.10;;;;;;;;;;5093548;28;20043;-71
2022/09/16 14:56:03;;;;;;;0.32;0.15;;;;;;;;;;5093589;28;20564;-71
2022/09/16 14:58:30;;;;;;;1.40;0.10;;;;;;;;;;5093608;28;20044;-71
2022/09/16 15:01:02;;;;;;;1.17;0.10;;;;;;;;;;5094185;28;20051;-71
2022/09/16 15:03:35;;;;;;;0.55;0.20;;;;;;;;;;5095012;28;20131;-71
2022/09/16 15:06:05;;;;;;;1.10;0.17;;;;;;;;;;5094502;28;20044;-71
2022/09/16 15:08:42;;;;;;;0.80;0.20;;;;;;;;;;5094672;28;20058;-71